sensor_id;sensor_type;location;lat;lon;timestamp;pressure;altitude;pressure_sealevel;temperature;humidity
78064;BME280;67429;51.596;-3.264;2023-03-05T00:00:32;100507.23;;;3.59;42.71
78064;BME280;67429;51.596;-3.264;2023-03-05T00:02:57;100504.80;;;4.06;41.71
78064;BME280;67429;51.596;-3.264;2023-03-05T00:05:23;100504.53;;;4.37;41.59
78064;BME280;67429;51.596;-3.264;2023-03-05T00:07:48;100500.70;;;4.59;40.77
78064;BME280;67429;51.596;-3.264;2023-03-05T00:10:13;100498.51;;;4.42;41.18
78064;BME280;67429;51.596;-3.264;2023-03-05T00:12:38;100499.74;;;4.43;41.10
78064;BME280;67429;51.596;-3.264;2023-03-05T00:15:05;100502.12;;;3.86;41.42
78064;BME280;67429;51.596;-3.264;2023-03-05T00:17:29;100498.99;;;4.07;41.57
78064;BME280;67429;51.596;-3.264;2023-03-05T00:19:54;100493.13;;;4.24;41.66
78064;BME280;67429;51.596;-3.264;2023-03-05T00:22:20;100493.67;;;4.10;40.72
78064;BME280;67429;51.596;-3.264;2023-03-05T00:24:45;100493.61;;;4.33;41.31
78064;BME280;67429;51.596;-3.264;2023-03-05T00:27:10;100489.44;;;4.09;41.07
78064;BME280;67429;51.596;-3.264;2023-03-05T00:29:36;100484.47;;;3.73;42.14
78064;BME280;67429;51.596;-3.264;2023-03-05T00:32:02;100482.75;;;4.15;41.18
78064;BME280;67429;51.596;-3.264;2023-03-05T00:34:27;100480.61;;;4.71;40.00
78064;BME280;67429;51.596;-3.264;2023-03-05T00:36:53;100479.40;;;5.32;39.53
78064;BME280;67429;51.596;-3.264;2023-03-05T00:39:20;100477.22;;;3.71;41.61
78064;BME280;67429;51.596;-3.264;2023-03-05T00:41:44;100464.31;;;2.98;43.59
78064;BME280;67429;51.596;-3.264;2023-03-05T00:44:09;100459.40;;;2.91;43.88
78064;BME280;67429;51.596;-3.264;2023-03-05T00:46:35;100456.61;;;3.67;42.65
78064;BME280;67429;51.596;-3.264;2023-03-05T00:49:01;100452.77;;;4.01;41.91
78064;BME280;67429;51.596;-3.264;2023-03-05T00:51:27;100447.94;;;4.15;41.30
78064;BME280;67429;51.596;-3.264;2023-03-05T00:53:52;100446.78;;;4.30;40.87
78064;BME280;67429;51.596;-3.264;2023-03-05T00:56:17;100446.70;;;3.65;42.12
78064;BME280;67429;51.596;-3.264;2023-03-05T00:58:43;100442.62;;;5.00;40.49
78064;BME280;67429;51.596;-3.264;2023-03-05T01:01:09;100439.42;;;5.43;40.00
78064;BME280;67429;51.596;-3.264;2023-03-05T01:03:34;100437.72;;;5.19;39.27
78064;BME280;67429;51.596;-3.264;2023-03-05T01:06:02;100432.46;;;5.55;39.35
78064;BME280;67429;51.596;-3.264;2023-03-05T01:08:25;100432.54;;;5.53;39.37
78064;BME280;67429;51.596;-3.264;2023-03-05T01:10:51;100430.98;;;4.16;41.76
78064;BME280;67429;51.596;-3.264;2023-03-05T01:13:15;100424.94;;;5.11;39.99
78064;BME280;67429;51.596;-3.264;2023-03-05T01:15:41;100422.12;;;5.19;39.41
78064;BME280;67429;51.596;-3.264;2023-03-05T01:18:06;100417.39;;;5.40;39.65
78064;BME280;67429;51.596;-3.264;2023-03-05T01:20:32;100413.12;;;5.28;39.52
78064;BME280;67429;51.596;-3.264;2023-03-05T01:22:56;100412.62;;;5.49;39.75
78064;BME280;67429;51.596;-3.264;2023-03-05T01:25:22;100412.49;;;5.63;38.76
78064;BME280;67429;51.596;-3.264;2023-03-05T01:27:47;100412.14;;;5.75;38.62
78064;BME280;67429;51.596;-3.264;2023-03-05T01:30:14;100411.78;;;5.95;38.09
78064;BME280;67429;51.596;-3.264;2023-03-05T01:32:38;100406.67;;;6.03;38.00
78064;BME280;67429;51.596;-3.264;2023-03-05T01:35:05;100402.08;;;5.67;38.62
78064;BME280;67429;51.596;-3.264;2023-03-05T01:37:29;100402.08;;;5.91;38.58
78064;BME280;67429;51.596;-3.264;2023-03-05T01:39:54;100398.98;;;5.39;39.37
78064;BME280;67429;51.596;-3.264;2023-03-05T01:42:20;100400.76;;;3.90;41.82
78064;BME280;67429;51.596;-3.264;2023-03-05T01:44:58;100398.82;;;3.71;42.36
78064;BME280;67429;51.596;-3.264;2023-03-05T01:47:11;100398.41;;;3.92;41.38
78064;BME280;67429;51.596;-3.264;2023-03-05T01:49:38;100397.33;;;4.37;40.77
78064;BME280;67429;51.596;-3.264;2023-03-05T01:52:06;100391.64;;;5.02;40.17
78064;BME280;67429;51.596;-3.264;2023-03-05T01:54:31;100389.52;;;5.00;40.56
78064;BME280;67429;51.596;-3.264;2023-03-05T01:56:56;100389.61;;;4.23;41.60
78064;BME280;67429;51.596;-3.264;2023-03-05T01:59:18;100383.40;;;4.70;41.34
78064;BME280;67429;51.596;-3.264;2023-03-05T02:01:47;100385.02;;;4.67;41.36
78064;BME280;67429;51.596;-3.264;2023-03-05T02:04:12;100382.68;;;4.30;41.29
78064;BME280;67429;51.596;-3.264;2023-03-05T02:06:34;100374.57;;;4.52;40.95
78064;BME280;67429;51.596;-3.264;2023-03-05T02:08:59;100374.42;;;4.11;41.32
78064;BME280;67429;51.596;-3.264;2023-03-05T02:11:25;100374.24;;;4.48;41.29
78064;BME280;67429;51.596;-3.264;2023-03-05T02:13:51;100371.57;;;3.86;41.91
78064;BME280;67429;51.596;-3.264;2023-03-05T02:16:17;100366.93;;;4.02;42.20
78064;BME280;67429;51.596;-3.264;2023-03-05T02:18:42;100362.90;;;4.34;41.21
78064;BME280;67429;51.596;-3.264;2023-03-05T02:21:09;100360.28;;;4.82;40.67
78064;BME280;67429;51.596;-3.264;2023-03-05T02:23:35;100355.96;;;4.61;40.74
78064;BME280;67429;51.596;-3.264;2023-03-05T02:25:59;100355.76;;;4.32;41.13
78064;BME280;67429;51.596;-3.264;2023-03-05T02:28:28;100361.10;;;4.21;41.28
78064;BME280;67429;51.596;-3.264;2023-03-05T02:30:49;100358.40;;;4.72;40.57
78064;BME280;67429;51.596;-3.264;2023-03-05T02:33:16;100355.21;;;4.71;40.56
78064;BME280;67429;51.596;-3.264;2023-03-05T02:35:40;100350.67;;;4.47;40.49
78064;BME280;67429;51.596;-3.264;2023-03-05T02:38:05;100352.60;;;3.28;42.95
78064;BME280;67429;51.596;-3.264;2023-03-05T02:40:30;100347.17;;;3.41;43.01
78064;BME280;67429;51.596;-3.264;2023-03-05T02:42:56;100347.18;;;3.14;44.00
78064;BME280;67429;51.596;-3.264;2023-03-05T02:45:21;100339.49;;;3.39;42.96
78064;BME280;67429;51.596;-3.264;2023-03-05T02:47:47;100339.07;;;3.54;42.27
78064;BME280;67429;51.596;-3.264;2023-03-05T02:50:13;100335.78;;;3.74;41.92
78064;BME280;67429;51.596;-3.264;2023-03-05T02:52:38;100330.55;;;4.13;40.68
78064;BME280;67429;51.596;-3.264;2023-03-05T02:55:05;100323.15;;;4.22;40.34
78064;BME280;67429;51.596;-3.264;2023-03-05T02:57:29;100318.27;;;4.60;40.04
78064;BME280;67429;51.596;-3.264;2023-03-05T02:59:55;100316.83;;;4.58;40.11
78064;BME280;67429;51.596;-3.264;2023-03-05T03:02:20;100311.61;;;4.43;40.89
78064;BME280;67429;51.596;-3.264;2023-03-05T03:04:46;100309.04;;;4.15;41.32
78064;BME280;67429;51.596;-3.264;2023-03-05T03:07:13;100298.80;;;4.15;41.01
78064;BME280;67429;51.596;-3.264;2023-03-05T03:09:37;100291.57;;;4.31;40.92
78064;BME280;67429;51.596;-3.264;2023-03-05T03:12:04;100291.55;;;4.33;41.03
78064;BME280;67429;51.596;-3.264;2023-03-05T03:14:31;100288.57;;;4.19;41.86
78064;BME280;67429;51.596;-3.264;2023-03-05T03:16:54;100286.83;;;2.42;42.80
78064;BME280;67429;51.596;-3.264;2023-03-05T03:19:20;100285.60;;;2.85;43.45
78064;BME280;67429;51.596;-3.264;2023-03-05T03:21:45;100281.66;;;3.13;44.10
78064;BME280;67429;51.596;-3.264;2023-03-05T03:24:11;100280.08;;;3.44;43.30
78064;BME280;67429;51.596;-3.264;2023-03-05T03:26:36;100279.01;;;3.03;43.29
78064;BME280;67429;51.596;-3.264;2023-03-05T03:29:02;100274.43;;;3.15;42.89
78064;BME280;67429;51.596;-3.264;2023-03-05T03:31:28;100272.83;;;2.98;43.38
78064;BME280;67429;51.596;-3.264;2023-03-05T03:33:54;100270.65;;;3.19;43.66
78064;BME280;67429;51.596;-3.264;2023-03-05T03:36:19;100266.35;;;1.74;45.37
78064;BME280;67429;51.596;-3.264;2023-03-05T03:38:45;100265.32;;;3.50;42.99
78064;BME280;67429;51.596;-3.264;2023-03-05T03:41:11;100264.32;;;3.68;42.23
78064;BME280;67429;51.596;-3.264;2023-03-05T03:43:36;100256.40;;;3.43;42.66
78064;BME280;67429;51.596;-3.264;2023-03-05T03:46:03;100252.86;;;3.46;42.29
78064;BME280;67429;51.596;-3.264;2023-03-05T03:48:27;100254.03;;;3.70;41.83
78064;BME280;67429;51.596;-3.264;2023-03-05T03:50:53;100250.45;;;3.24;42.04
78064;BME280;67429;51.596;-3.264;2023-03-05T03:53:18;100248.46;;;2.29;43.54
78064;BME280;67429;51.596;-3.264;2023-03-05T03:55:44;100243.46;;;3.53;42.46
78064;BME280;67429;51.596;-3.264;2023-03-05T03:58:09;100246.47;;;2.64;42.59
78064;BME280;67429;51.596;-3.264;2023-03-05T04:00:35;100241.69;;;2.94;42.89
78064;BME280;67429;51.596;-3.264;2023-03-05T04:03:00;100242.37;;;3.36;41.88
78064;BME280;67429;51.596;-3.264;2023-03-05T04:05:26;100237.57;;;3.43;41.74
78064;BME280;67429;51.596;-3.264;2023-03-05T04:07:51;100237.70;;;3.34;42.38
78064;BME280;67429;51.596;-3.264;2023-03-05T04:10:17;100234.09;;;3.11;42.84
78064;BME280;67429;51.596;-3.264;2023-03-05T04:12:42;100233.75;;;3.26;42.98
78064;BME280;67429;51.596;-3.264;2023-03-05T04:15:09;100226.25;;;3.16;42.92
78064;BME280;67429;51.596;-3.264;2023-03-05T04:17:32;100225.20;;;3.37;42.51
78064;BME280;67429;51.596;-3.264;2023-03-05T04:19:58;100225.84;;;3.47;42.39
78064;BME280;67429;51.596;-3.264;2023-03-05T04:22:23;100223.42;;;3.64;42.01
78064;BME280;67429;51.596;-3.264;2023-03-05T04:24:49;100222.96;;;3.85;41.59
78064;BME280;67429;51.596;-3.264;2023-03-05T04:27:14;100228.31;;;3.53;41.63
78064;BME280;67429;51.596;-3.264;2023-03-05T04:29:40;100226.93;;;2.19;44.15
78064;BME280;67429;51.596;-3.264;2023-03-05T04:32:05;100226.00;;;2.51;42.94
78064;BME280;67429;51.596;-3.264;2023-03-05T04:34:31;100221.68;;;2.97;42.28
78064;BME280;67429;51.596;-3.264;2023-03-05T04:36:56;100222.48;;;2.79;42.41
78064;BME280;67429;51.596;-3.264;2023-03-05T04:39:21;100219.17;;;2.85;42.80
78064;BME280;67429;51.596;-3.264;2023-03-05T04:41:47;100221.33;;;2.30;43.65
78064;BME280;67429;51.596;-3.264;2023-03-05T04:44:13;100222.45;;;2.39;43.56
78064;BME280;67429;51.596;-3.264;2023-03-05T04:46:37;100224.17;;;2.90;43.12
78064;BME280;67429;51.596;-3.264;2023-03-05T04:49:03;100225.42;;;2.34;43.54
78064;BME280;67429;51.596;-3.264;2023-03-05T04:51:28;100223.02;;;2.83;42.23
78064;BME280;67429;51.596;-3.264;2023-03-05T04:53:54;100216.49;;;3.10;41.68
78064;BME280;67429;51.596;-3.264;2023-03-05T04:56:19;100214.76;;;3.51;40.48
78064;BME280;67429;51.596;-3.264;2023-03-05T04:58:45;100211.47;;;3.59;40.26
78064;BME280;67429;51.596;-3.264;2023-03-05T05:01:10;100211.93;;;4.27;39.04
78064;BME280;67429;51.596;-3.264;2023-03-05T05:03:36;100206.66;;;4.39;39.58
78064;BME280;67429;51.596;-3.264;2023-03-05T05:06:00;100197.02;;;3.74;39.94
78064;BME280;67429;51.596;-3.264;2023-03-05T05:08:27;100190.14;;;4.09;40.14
78064;BME280;67429;51.596;-3.264;2023-03-05T05:10:56;100182.16;;;4.34;39.97
78064;BME280;67429;51.596;-3.264;2023-03-05T05:13:18;100180.06;;;4.10;39.36
78064;BME280;67429;51.596;-3.264;2023-03-05T05:15:43;100173.09;;;4.05;38.98
78064;BME280;67429;51.596;-3.264;2023-03-05T05:18:09;100167.16;;;4.18;39.50
78064;BME280;67429;51.596;-3.264;2023-03-05T05:20:35;100162.34;;;4.08;39.32
78064;BME280;67429;51.596;-3.264;2023-03-05T05:23:00;100157.45;;;4.26;39.38
78064;BME280;67429;51.596;-3.264;2023-03-05T05:25:26;100159.95;;;4.56;38.70
78064;BME280;67429;51.596;-3.264;2023-03-05T05:27:51;100161.58;;;4.68;38.95
78064;BME280;67429;51.596;-3.264;2023-03-05T05:30:17;100158.58;;;4.87;38.74
78064;BME280;67429;51.596;-3.264;2023-03-05T05:32:43;100157.99;;;4.98;38.69
78064;BME280;67429;51.596;-3.264;2023-03-05T05:35:10;100151.94;;;4.85;38.84
78064;BME280;67429;51.596;-3.264;2023-03-05T05:37:34;100150.07;;;4.82;38.67
78064;BME280;67429;51.596;-3.264;2023-03-05T05:40:00;100147.52;;;4.54;38.90
78064;BME280;67429;51.596;-3.264;2023-03-05T05:42:26;100142.48;;;4.44;39.65
78064;BME280;67429;51.596;-3.264;2023-03-05T05:44:52;100138.47;;;4.53;39.33
78064;BME280;67429;51.596;-3.264;2023-03-05T05:47:18;100134.55;;;4.69;38.43
78064;BME280;67429;51.596;-3.264;2023-03-05T05:49:43;100129.97;;;5.04;38.49
78064;BME280;67429;51.596;-3.264;2023-03-05T05:52:09;100126.41;;;4.82;38.86
78064;BME280;67429;51.596;-3.264;2023-03-05T05:54:35;100123.01;;;4.80;38.34
78064;BME280;67429;51.596;-3.264;2023-03-05T05:57:01;100121.33;;;4.36;39.47
78064;BME280;67429;51.596;-3.264;2023-03-05T05:59:26;100118.14;;;3.89;40.24
78064;BME280;67429;51.596;-3.264;2023-03-05T06:01:53;100114.26;;;4.42;39.51
78064;BME280;67429;51.596;-3.264;2023-03-05T06:04:18;100112.05;;;4.52;39.79
78064;BME280;67429;51.596;-3.264;2023-03-05T06:06:44;100109.50;;;3.72;40.39
78064;BME280;67429;51.596;-3.264;2023-03-05T06:09:10;100105.66;;;3.97;41.11
78064;BME280;67429;51.596;-3.264;2023-03-05T06:11:36;100105.56;;;4.15;40.32
78064;BME280;67429;51.596;-3.264;2023-03-05T06:14:01;100101.90;;;4.56;39.84
78064;BME280;67429;51.596;-3.264;2023-03-05T06:16:27;100093.35;;;4.38;39.74
78064;BME280;67429;51.596;-3.264;2023-03-05T06:18:53;100092.26;;;4.29;40.00
78064;BME280;67429;51.596;-3.264;2023-03-05T06:21:19;100093.47;;;3.73;40.83
78064;BME280;67429;51.596;-3.264;2023-03-05T06:23:45;100090.94;;;4.52;40.09
78064;BME280;67429;51.596;-3.264;2023-03-05T06:26:11;100089.83;;;4.60;39.44
78064;BME280;67429;51.596;-3.264;2023-03-05T06:28:35;100091.61;;;4.54;39.98
78064;BME280;67429;51.596;-3.264;2023-03-05T06:31:02;100088.56;;;4.67;40.36
78064;BME280;67429;51.596;-3.264;2023-03-05T06:33:28;100088.64;;;4.56;40.10
78064;BME280;67429;51.596;-3.264;2023-03-05T06:35:54;100089.46;;;5.10;39.66
78064;BME280;67429;51.596;-3.264;2023-03-05T06:38:19;100088.24;;;5.26;38.55
78064;BME280;67429;51.596;-3.264;2023-03-05T06:40:44;100084.84;;;5.30;38.71
78064;BME280;67429;51.596;-3.264;2023-03-05T06:43:10;100085.04;;;4.92;38.46
78064;BME280;67429;51.596;-3.264;2023-03-05T06:45:36;100086.70;;;5.01;38.67
78064;BME280;67429;51.596;-3.264;2023-03-05T06:48:02;100084.64;;;5.24;38.30
78064;BME280;67429;51.596;-3.264;2023-03-05T06:50:27;100088.95;;;5.21;38.23
78064;BME280;67429;51.596;-3.264;2023-03-05T06:52:53;100091.16;;;4.67;38.95
78064;BME280;67429;51.596;-3.264;2023-03-05T06:55:18;100090.98;;;4.76;39.60
78064;BME280;67429;51.596;-3.264;2023-03-05T06:57:44;100089.16;;;4.47;39.95
78064;BME280;67429;51.596;-3.264;2023-03-05T07:00:11;100085.12;;;4.35;40.21
78064;BME280;67429;51.596;-3.264;2023-03-05T07:02:36;100090.08;;;4.01;41.16
78064;BME280;67429;51.596;-3.264;2023-03-05T07:05:01;100086.79;;;3.67;41.40
78064;BME280;67429;51.596;-3.264;2023-03-05T07:07:27;100086.69;;;4.13;41.43
78064;BME280;67429;51.596;-3.264;2023-03-05T07:09:53;100089.59;;;3.68;41.67
78064;BME280;67429;51.596;-3.264;2023-03-05T07:12:18;100089.05;;;4.29;40.71
78064;BME280;67429;51.596;-3.264;2023-03-05T07:14:44;100091.79;;;4.48;40.62
78064;BME280;67429;51.596;-3.264;2023-03-05T07:17:10;100090.67;;;4.65;39.88
78064;BME280;67429;51.596;-3.264;2023-03-05T07:19:37;100086.71;;;4.70;40.57
78064;BME280;67429;51.596;-3.264;2023-03-05T07:22:02;100081.00;;;4.82;40.31
78064;BME280;67429;51.596;-3.264;2023-03-05T07:24:28;100083.36;;;4.66;40.97
78064;BME280;67429;51.596;-3.264;2023-03-05T07:26:54;100083.92;;;4.52;40.46
78064;BME280;67429;51.596;-3.264;2023-03-05T07:29:19;100081.83;;;4.85;40.05
78064;BME280;67429;51.596;-3.264;2023-03-05T07:31:45;100082.99;;;4.53;39.77
78064;BME280;67429;51.596;-3.264;2023-03-05T07:34:10;100080.03;;;5.16;39.25
78064;BME280;67429;51.596;-3.264;2023-03-05T07:36:36;100082.76;;;5.35;39.39
78064;BME280;67429;51.596;-3.264;2023-03-05T07:39:03;100075.81;;;5.20;39.55
78064;BME280;67429;51.596;-3.264;2023-03-05T07:41:28;100066.72;;;5.01;40.27
78064;BME280;67429;51.596;-3.264;2023-03-05T07:43:54;100067.91;;;4.98;40.20
78064;BME280;67429;51.596;-3.264;2023-03-05T07:46:22;100067.56;;;4.93;40.06
78064;BME280;67429;51.596;-3.264;2023-03-05T07:48:45;100070.51;;;4.85;39.71
78064;BME280;67429;51.596;-3.264;2023-03-05T07:51:12;100068.40;;;5.31;39.30
78064;BME280;67429;51.596;-3.264;2023-03-05T07:53:36;100069.61;;;5.03;39.35
78064;BME280;67429;51.596;-3.264;2023-03-05T07:56:02;100067.64;;;5.44;39.30
78064;BME280;67429;51.596;-3.264;2023-03-05T07:58:27;100063.92;;;4.89;39.54
78064;BME280;67429;51.596;-3.264;2023-03-05T08:00:54;100065.48;;;4.85;39.65
78064;BME280;67429;51.596;-3.264;2023-03-05T08:03:19;100067.36;;;4.76;40.03
78064;BME280;67429;51.596;-3.264;2023-03-05T08:05:45;100064.40;;;4.97;39.49
78064;BME280;67429;51.596;-3.264;2023-03-05T08:08:11;100064.16;;;5.07;39.25
78064;BME280;67429;51.596;-3.264;2023-03-05T08:10:37;100066.09;;;4.31;41.06
78064;BME280;67429;51.596;-3.264;2023-03-05T08:13:03;100066.89;;;3.60;42.56
78064;BME280;67429;51.596;-3.264;2023-03-05T08:15:28;100063.90;;;3.39;43.61
78064;BME280;67429;51.596;-3.264;2023-03-05T08:17:54;100069.14;;;3.69;42.80
78064;BME280;67429;51.596;-3.264;2023-03-05T08:20:19;100068.08;;;4.06;42.63
78064;BME280;67429;51.596;-3.264;2023-03-05T08:22:46;100061.01;;;4.21;42.53
78064;BME280;67429;51.596;-3.264;2023-03-05T08:25:12;100066.24;;;3.70;42.13
78064;BME280;67429;51.596;-3.264;2023-03-05T08:27:38;100062.10;;;4.18;42.27
78064;BME280;67429;51.596;-3.264;2023-03-05T08:30:03;100054.32;;;3.30;43.52
78064;BME280;67429;51.596;-3.264;2023-03-05T08:32:28;100053.05;;;2.72;44.45
78064;BME280;67429;51.596;-3.264;2023-03-05T08:34:55;100051.32;;;3.10;43.84
78064;BME280;67429;51.596;-3.264;2023-03-05T08:37:19;100051.19;;;2.49;44.62
78064;BME280;67429;51.596;-3.264;2023-03-05T08:39:45;100049.52;;;3.35;43.91
78064;BME280;67429;51.596;-3.264;2023-03-05T08:42:10;100053.76;;;3.26;43.42
78064;BME280;67429;51.596;-3.264;2023-03-05T08:44:35;100048.80;;;3.40;43.39
78064;BME280;67429;51.596;-3.264;2023-03-05T08:47:01;100043.08;;;3.15;43.57
78064;BME280;67429;51.596;-3.264;2023-03-05T08:49:27;100040.66;;;3.35;43.10
78064;BME280;67429;51.596;-3.264;2023-03-05T08:51:52;100039.31;;;3.78;42.71
78064;BME280;67429;51.596;-3.264;2023-03-05T08:54:18;100034.76;;;3.16;43.08
78064;BME280;67429;51.596;-3.264;2023-03-05T08:56:43;100034.60;;;2.98;43.34
78064;BME280;67429;51.596;-3.264;2023-03-05T08:59:09;100032.16;;;3.03;43.54
78064;BME280;67429;51.596;-3.264;2023-03-05T09:01:35;100031.94;;;3.17;43.92
78064;BME280;67429;51.596;-3.264;2023-03-05T09:04:01;100026.20;;;3.34;43.46
78064;BME280;67429;51.596;-3.264;2023-03-05T09:06:26;100024.21;;;2.93;43.93
78064;BME280;67429;51.596;-3.264;2023-03-05T09:08:52;100019.44;;;3.50;43.31
78064;BME280;67429;51.596;-3.264;2023-03-05T09:11:17;100020.57;;;3.61;42.56
78064;BME280;67429;51.596;-3.264;2023-03-05T09:13:43;100016.49;;;3.43;42.98
78064;BME280;67429;51.596;-3.264;2023-03-05T09:16:15;100013.64;;;3.46;43.14
78064;BME280;67429;51.596;-3.264;2023-03-05T09:18:34;100011.64;;;3.69;42.54
78064;BME280;67429;51.596;-3.264;2023-03-05T09:21:03;100006.41;;;3.45;42.95
78064;BME280;67429;51.596;-3.264;2023-03-05T09:23:26;100006.85;;;3.95;42.55
78064;BME280;67429;51.596;-3.264;2023-03-05T09:25:51;100000.12;;;3.84;42.52
78064;BME280;67429;51.596;-3.264;2023-03-05T09:28:17;99995.87;;;3.53;42.41
78064;BME280;67429;51.596;-3.264;2023-03-05T09:30:43;99992.64;;;3.81;43.02
78064;BME280;67429;51.596;-3.264;2023-03-05T09:33:09;99983.89;;;3.95;42.25
78064;BME280;67429;51.596;-3.264;2023-03-05T09:35:35;99977.76;;;3.84;42.65
78064;BME280;67429;51.596;-3.264;2023-03-05T09:37:59;99980.51;;;4.20;42.36
78064;BME280;67429;51.596;-3.264;2023-03-05T09:40:25;99975.20;;;3.94;42.90
78064;BME280;67429;51.596;-3.264;2023-03-05T09:43:00;99974.00;;;3.60;42.90
78064;BME280;67429;51.596;-3.264;2023-03-05T09:45:21;99968.73;;;3.86;42.47
78064;BME280;67429;51.596;-3.264;2023-03-05T09:47:50;99968.64;;;3.91;41.91
78064;BME280;67429;51.596;-3.264;2023-03-05T09:50:13;99969.34;;;4.20;42.03
78064;BME280;67429;51.596;-3.264;2023-03-05T09:52:40;99962.53;;;4.12;42.55
78064;BME280;67429;51.596;-3.264;2023-03-05T09:54:58;99963.75;;;4.02;42.64
78064;BME280;67429;51.596;-3.264;2023-03-05T09:57:27;99966.64;;;3.91;41.95
78064;BME280;67429;51.596;-3.264;2023-03-05T09:59:52;99960.76;;;4.06;42.00
78064;BME280;67429;51.596;-3.264;2023-03-05T10:02:20;99955.34;;;4.19;41.95
78064;BME280;67429;51.596;-3.264;2023-03-05T10:04:43;99953.07;;;3.78;42.63
78064;BME280;67429;51.596;-3.264;2023-03-05T10:07:12;99955.23;;;4.09;42.75
78064;BME280;67429;51.596;-3.264;2023-03-05T10:09:42;99955.15;;;4.11;42.27
78064;BME280;67429;51.596;-3.264;2023-03-05T10:12:01;99953.16;;;3.91;42.95
78064;BME280;67429;51.596;-3.264;2023-03-05T10:14:26;99947.33;;;3.57;43.03
78064;BME280;67429;51.596;-3.264;2023-03-05T10:19:20;99943.97;;;4.81;41.14
78064;BME280;67429;51.596;-3.264;2023-03-05T10:21:46;99943.03;;;4.37;41.72
78064;BME280;67429;51.596;-3.264;2023-03-05T10:24:12;99939.59;;;4.37;41.61
78064;BME280;67429;51.596;-3.264;2023-03-05T10:26:44;99937.86;;;4.07;42.34
78064;BME280;67429;51.596;-3.264;2023-03-05T10:29:07;99925.98;;;3.85;42.90
78064;BME280;67429;51.596;-3.264;2023-03-05T10:31:35;99922.11;;;3.88;42.80
78064;BME280;67429;51.596;-3.264;2023-03-05T10:33:57;99920.02;;;3.81;43.51
78064;BME280;67429;51.596;-3.264;2023-03-05T10:36:24;99914.34;;;3.52;44.07
78064;BME280;67429;51.596;-3.264;2023-03-05T10:38:51;99908.43;;;3.90;43.93
78064;BME280;67429;51.596;-3.264;2023-03-05T10:41:12;99909.83;;;3.93;43.78
78064;BME280;67429;51.596;-3.264;2023-03-05T10:43:36;99909.81;;;3.99;44.24
78064;BME280;67429;51.596;-3.264;2023-03-05T10:45:57;99907.29;;;3.78;44.12
78064;BME280;67429;51.596;-3.264;2023-03-05T10:48:27;99903.99;;;4.19;43.89
78064;BME280;67429;51.596;-3.264;2023-03-05T10:50:52;99911.58;;;3.31;44.96
78064;BME280;67429;51.596;-3.264;2023-03-05T10:53:22;99910.17;;;3.01;46.56
78064;BME280;67429;51.596;-3.264;2023-03-05T10:55:40;99901.61;;;3.57;45.50
78064;BME280;67429;51.596;-3.264;2023-03-05T10:58:10;99900.95;;;3.34;46.17
78064;BME280;67429;51.596;-3.264;2023-03-05T11:00:31;99897.51;;;3.50;45.50
78064;BME280;67429;51.596;-3.264;2023-03-05T11:02:59;99893.79;;;3.74;45.22
78064;BME280;67429;51.596;-3.264;2023-03-05T11:05:39;99893.56;;;4.32;44.25
78064;BME280;67429;51.596;-3.264;2023-03-05T11:07:48;99888.77;;;3.48;45.70
78064;BME280;67429;51.596;-3.264;2023-03-05T11:10:17;99884.62;;;4.56;43.83
78064;BME280;67429;51.596;-3.264;2023-03-05T11:12:39;99874.99;;;4.00;45.00
78064;BME280;67429;51.596;-3.264;2023-03-05T11:17:33;99865.57;;;3.39;46.04
78064;BME280;67429;51.596;-3.264;2023-03-05T11:19:57;99860.97;;;4.14;45.11
78064;BME280;67429;51.596;-3.264;2023-03-05T11:22:23;99852.95;;;3.56;45.64
78064;BME280;67429;51.596;-3.264;2023-03-05T11:25:03;99849.46;;;3.66;45.90
78064;BME280;67429;51.596;-3.264;2023-03-05T11:27:23;99846.98;;;3.18;46.33
78064;BME280;67429;51.596;-3.264;2023-03-05T11:29:46;99847.97;;;3.98;45.18
78064;BME280;67429;51.596;-3.264;2023-03-05T11:32:15;99842.19;;;3.34;47.03
78064;BME280;67429;51.596;-3.264;2023-03-05T11:34:31;99837.18;;;3.65;46.83
78064;BME280;67429;51.596;-3.264;2023-03-05T11:37:01;99835.85;;;4.04;45.10
78064;BME280;67429;51.596;-3.264;2023-03-05T11:39:22;99830.46;;;3.77;45.80
78064;BME280;67429;51.596;-3.264;2023-03-05T11:41:49;99831.44;;;3.87;45.11
78064;BME280;67429;51.596;-3.264;2023-03-05T11:44:14;99830.36;;;4.50;44.74
78064;BME280;67429;51.596;-3.264;2023-03-05T11:46:42;99822.49;;;3.62;45.97
78064;BME280;67429;51.596;-3.264;2023-03-05T11:49:04;99820.83;;;3.62;46.80
78064;BME280;67429;51.596;-3.264;2023-03-05T11:51:35;99816.92;;;3.70;46.75
78064;BME280;67429;51.596;-3.264;2023-03-05T11:53:56;99818.30;;;3.83;46.17
78064;BME280;67429;51.596;-3.264;2023-03-05T11:56:23;99818.17;;;3.69;46.65
78064;BME280;67429;51.596;-3.264;2023-03-05T11:58:49;99815.44;;;3.66;46.67
78064;BME280;67429;51.596;-3.264;2023-03-05T12:01:15;99805.84;;;3.40;47.09
78064;BME280;67429;51.596;-3.264;2023-03-05T12:03:37;99806.05;;;3.06;47.89
78064;BME280;67429;51.596;-3.264;2023-03-05T12:06:12;99805.67;;;3.58;47.27
78064;BME280;67429;51.596;-3.264;2023-03-05T12:08:31;99802.29;;;3.54;47.19
78064;BME280;67429;51.596;-3.264;2023-03-05T12:10:55;99798.39;;;3.66;46.97
78064;BME280;67429;51.596;-3.264;2023-03-05T12:13:26;99789.86;;;3.04;47.70
78064;BME280;67429;51.596;-3.264;2023-03-05T12:15:52;99790.70;;;3.45;47.68
78064;BME280;67429;51.596;-3.264;2023-03-05T12:18:19;99789.29;;;3.42;48.25
78064;BME280;67429;51.596;-3.264;2023-03-05T12:20:43;99782.18;;;2.82;49.50
78064;BME280;67429;51.596;-3.264;2023-03-05T12:23:03;99775.63;;;3.50;48.10
78064;BME280;67429;51.596;-3.264;2023-03-05T12:25:33;99775.43;;;3.92;47.41
78064;BME280;67429;51.596;-3.264;2023-03-05T12:27:54;99768.39;;;4.01;47.18
78064;BME280;67429;51.596;-3.264;2023-03-05T12:32:51;99761.32;;;4.56;45.94
78064;BME280;67429;51.596;-3.264;2023-03-05T12:35:22;99755.98;;;4.55;45.50
78064;BME280;67429;51.596;-3.264;2023-03-05T12:40:02;99751.96;;;4.28;45.92
78064;BME280;67429;51.596;-3.264;2023-03-05T12:42:43;99748.85;;;4.73;45.28
78064;BME280;67429;51.596;-3.264;2023-03-05T12:47:18;99747.34;;;4.08;46.16
78064;BME280;67429;51.596;-3.264;2023-03-05T12:49:44;99738.42;;;4.50;46.15
78064;BME280;67429;51.596;-3.264;2023-03-05T12:52:21;99733.98;;;4.86;46.23
78064;BME280;67429;51.596;-3.264;2023-03-05T12:54:36;99732.72;;;5.59;44.69